createdAt,value
2018-09-14T00:01:58.637Z,57.80
2018-09-14T00:04:26.293Z,66.23
2018-09-14T00:06:53.865Z,53.93
2018-09-14T00:09:21.433Z,58.77
2018-09-14T00:11:48.982Z,49.80
2018-09-14T00:14:16.532Z,50.50
2018-09-14T00:16:44.083Z,43.93
2018-09-14T00:19:11.642Z,56.33
2018-09-14T00:21:39.232Z,49.67
2018-09-14T00:24:06.825Z,57.93
2018-09-14T00:26:34.392Z,51.60
2018-09-14T00:29:02.012Z,51.87
2018-09-14T00:31:29.688Z,62.73
2018-09-14T00:33:57.251Z,65.90
2018-09-14T00:36:24.831Z,59.53
2018-09-14T00:38:52.422Z,59.33
2018-09-14T00:41:19.981Z,58.60
2018-09-14T00:43:47.539Z,66.80
2018-09-14T00:46:15.085Z,66.27
2018-09-14T00:48:42.672Z,67.00
2018-09-14T00:51:10.252Z,60.27
2018-09-14T00:53:37.814Z,73.90
2018-09-14T00:56:05.556Z,63.23
2018-09-14T00:58:33.380Z,67.03
2018-09-14T01:01:00.944Z,67.67
2018-09-14T01:03:28.480Z,63.40
2018-09-14T01:05:56.090Z,55.77
2018-09-14T01:08:23.671Z,65.50
2018-09-14T01:10:51.238Z,59.07
2018-09-14T01:13:18.831Z,62.70
2018-09-14T01:15:46.439Z,62.87
2018-09-14T01:18:13.985Z,61.07
2018-09-14T01:20:41.550Z,60.80
2018-09-14T01:23:09.108Z,61.60
2018-09-14T01:25:36.697Z,70.20
2018-09-14T01:28:04.247Z,65.13
2018-09-14T01:30:32.096Z,79.07
2018-09-14T01:32:59.657Z,74.60
2018-09-14T01:35:32.956Z,81.33
2018-09-14T01:38:00.523Z,85.73
2018-09-14T01:40:28.120Z,85.93
2018-09-14T01:42:55.737Z,89.20
2018-09-14T01:45:23.340Z,81.10
2018-09-14T01:47:50.945Z,99.80
2018-09-14T01:50:18.511Z,102.97
2018-09-14T01:52:46.171Z,105.63
2018-09-14T01:55:13.720Z,91.77
2018-09-14T01:57:41.258Z,92.40
2018-09-14T02:00:08.963Z,83.53
2018-09-14T02:02:36.641Z,65.90
2018-09-14T02:05:04.659Z,64.37
2018-09-14T02:07:32.249Z,65.53
2018-09-14T02:09:59.820Z,59.63
2018-09-14T02:12:27.384Z,60.47
2018-09-14T02:14:55.028Z,58.63
2018-09-14T02:17:22.601Z,52.67
2018-09-14T02:19:50.185Z,55.70
2018-09-14T02:22:17.737Z,54.47
2018-09-14T02:24:45.300Z,73.07
2018-09-14T02:27:12.896Z,66.70
2018-09-14T02:29:40.554Z,53.30
2018-09-14T02:32:08.126Z,73.87
2018-09-14T02:34:35.668Z,81.00
2018-09-14T02:37:03.658Z,83.27
2018-09-14T02:39:31.554Z,98.40
2018-09-14T02:41:59.113Z,93.20
2018-09-14T02:44:26.663Z,115.93
2018-09-14T02:46:54.284Z,106.63
2018-09-14T02:49:21.849Z,120.40
2018-09-14T02:51:49.453Z,95.93
2018-09-14T02:54:17.079Z,113.07
2018-09-14T02:56:44.746Z,106.37
2018-09-14T02:59:12.385Z,122.07
2018-09-14T03:01:40.302Z,121.47
2018-09-14T03:04:07.957Z,107.77
2018-09-14T03:06:35.639Z,117.00
2018-09-14T03:09:04.186Z,113.37
2018-09-14T03:11:31.933Z,108.63
2018-09-14T03:13:59.585Z,119.90
2018-09-14T03:16:27.165Z,107.93
2018-09-14T03:18:54.772Z,110.93
2018-09-14T03:21:22.332Z,117.70
2018-09-14T03:23:49.886Z,132.13
2018-09-14T03:26:17.437Z,121.03
2018-09-14T03:28:45.089Z,108.47
2018-09-14T03:31:12.708Z,120.67
2018-09-14T03:33:40.264Z,122.17
2018-09-14T03:36:07.824Z,126.10
2018-09-14T03:38:35.407Z,134.20
2018-09-14T03:41:02.989Z,123.17
2018-09-14T03:43:30.585Z,130.20
2018-09-14T03:45:58.165Z,131.30
2018-09-14T03:48:25.772Z,130.90
2018-09-14T03:50:53.413Z,124.17
2018-09-14T03:53:20.990Z,119.70
2018-09-14T03:55:48.662Z,116.30
2018-09-14T03:58:16.353Z,119.10
2018-09-14T04:00:44.000Z,124.67
2018-09-14T04:03:11.540Z,126.90
2018-09-14T04:05:39.186Z,54.03
2018-09-14T04:08:06.884Z,110.07
2018-09-14T04:10:34.464Z,107.57
2018-09-14T04:13:02.088Z,89.90
2018-09-14T04:15:29.648Z,102.10
2018-09-14T04:17:57.224Z,110.40
2018-09-14T04:20:24.870Z,123.20
2018-09-14T04:22:52.463Z,108.30
2018-09-14T04:25:20.042Z,111.07
2018-09-14T04:27:47.601Z,107.33
2018-09-14T04:30:15.207Z,119.13
2018-09-14T04:32:42.771Z,124.30
2018-09-14T04:35:10.421Z,92.20
2018-09-14T04:37:37.988Z,117.53
2018-09-14T04:40:05.681Z,102.70
2018-09-14T04:42:33.254Z,102.63
2018-09-14T04:45:01.021Z,106.90
2018-09-14T04:47:28.656Z,127.93
2018-09-14T04:49:56.264Z,113.13
2018-09-14T04:52:26.426Z,101.17
2018-09-14T04:54:53.999Z,110.37
2018-09-14T04:57:21.813Z,107.10
2018-09-14T04:59:49.386Z,115.63
2018-09-14T05:02:17.040Z,102.67
2018-09-14T05:04:44.690Z,118.17
2018-09-14T05:07:12.330Z,98.07
2018-09-14T05:09:39.942Z,119.57
2018-09-14T05:12:07.515Z,114.13
2018-09-14T05:14:35.102Z,114.73
2018-09-14T05:17:02.754Z,116.43
2018-09-14T05:19:30.331Z,110.93
2018-09-14T05:21:58.006Z,114.83
2018-09-14T05:24:25.540Z,109.27
2018-09-14T05:26:53.145Z,106.97
2018-09-14T05:29:20.961Z,114.37
2018-09-14T05:31:48.756Z,124.77
2018-09-14T05:34:16.313Z,118.80
2018-09-14T05:36:43.986Z,116.87
2018-09-14T05:39:11.572Z,134.43
2018-09-14T05:41:39.186Z,134.23
2018-09-14T05:44:06.779Z,122.50
2018-09-14T05:46:34.360Z,125.40
2018-09-14T05:49:01.965Z,125.77
2018-09-14T05:51:29.549Z,114.33
2018-09-14T05:53:57.148Z,110.17
2018-09-14T05:56:25.105Z,123.20
2018-09-14T05:58:52.684Z,106.93
2018-09-14T06:01:20.775Z,114.73
2018-09-14T06:03:48.341Z,116.20
2018-09-14T06:06:15.971Z,134.53
2018-09-14T06:08:43.537Z,114.47
2018-09-14T06:11:11.120Z,120.00
2018-09-14T06:13:38.875Z,131.37
2018-09-14T06:16:06.520Z,120.77
2018-09-14T06:18:34.140Z,124.23
2018-09-14T06:21:01.769Z,134.23
2018-09-14T06:23:29.358Z,136.87
2018-09-14T06:25:56.991Z,110.53
2018-09-14T06:28:24.570Z,122.20
2018-09-14T06:30:52.137Z,123.97
2018-09-14T06:33:19.753Z,117.97
2018-09-14T06:35:47.922Z,116.83
2018-09-14T06:38:15.544Z,106.50
2018-09-14T06:40:43.151Z,117.77
2018-09-14T06:43:10.853Z,121.03
2018-09-14T06:45:38.439Z,115.10
2018-09-14T06:48:06.278Z,116.07
2018-09-14T06:50:33.949Z,97.87
2018-09-14T06:53:01.863Z,122.07
2018-09-14T06:55:29.594Z,107.40
2018-09-14T06:57:57.193Z,86.03
2018-09-14T07:00:24.975Z,104.90
2018-09-14T07:02:52.446Z,98.00
2018-09-14T07:05:20.028Z,90.23
2018-09-14T07:07:47.659Z,77.70
2018-09-14T07:10:15.248Z,75.80
2018-09-14T07:12:42.868Z,81.13
2018-09-14T07:15:10.555Z,61.33
2018-09-14T07:17:38.216Z,73.10
2018-09-14T07:20:05.856Z,59.60
2018-09-14T07:22:33.504Z,66.50
2018-09-14T07:25:01.221Z,64.77
2018-09-14T07:27:28.882Z,73.97
2018-09-14T07:29:56.528Z,74.47
2018-09-14T07:32:24.147Z,66.60
2018-09-14T07:34:51.718Z,57.00
2018-09-14T07:37:19.325Z,57.40
2018-09-14T07:39:46.987Z,69.93
2018-09-14T07:42:14.649Z,75.03
2018-09-14T07:44:42.239Z,55.00
2018-09-14T07:47:09.869Z,71.10
2018-09-14T07:49:37.631Z,58.63
2018-09-14T07:52:05.548Z,79.97
2018-09-14T07:54:33.282Z,79.40
2018-09-14T07:57:00.871Z,83.73
2018-09-14T07:59:28.484Z,94.27
2018-09-14T08:01:56.083Z,86.83
2018-09-14T08:04:23.684Z,102.97
2018-09-14T08:06:51.299Z,90.60
2018-09-14T08:09:18.925Z,89.77
2018-09-14T08:11:46.521Z,88.70
2018-09-14T08:14:14.090Z,86.40
2018-09-14T08:16:41.721Z,102.13
2018-09-14T08:19:09.258Z,94.47
2018-09-14T08:21:37.032Z,94.37
2018-09-14T08:24:04.703Z,110.20
2018-09-14T08:26:32.489Z,93.73
2018-09-14T08:29:00.153Z,90.77
2018-09-14T08:31:27.735Z,89.37
2018-09-14T08:33:55.704Z,95.07
2018-09-14T08:36:23.340Z,80.97
2018-09-14T08:38:50.988Z,89.10
2018-09-14T08:41:18.696Z,93.83
2018-09-14T08:43:46.380Z,93.60
2018-09-14T08:46:13.961Z,89.30
2018-09-14T08:48:41.544Z,89.13
2018-09-14T08:51:09.308Z,85.03
2018-09-14T08:53:37.088Z,90.37
2018-09-14T08:56:04.707Z,74.00
2018-09-14T08:58:32.468Z,73.00
2018-09-14T09:01:00.140Z,79.07
2018-09-14T09:03:27.751Z,81.73
2018-09-14T09:05:55.904Z,67.47
2018-09-14T09:08:23.465Z,80.37
2018-09-14T09:10:51.045Z,68.03
2018-09-14T09:13:18.648Z,62.10
2018-09-14T09:15:46.197Z,69.33
2018-09-14T09:18:13.801Z,60.43
2018-09-14T09:20:41.432Z,72.13
2018-09-14T09:23:09.226Z,59.13
2018-09-14T09:25:36.848Z,72.47
2018-09-14T09:28:04.472Z,64.40
2018-09-14T09:30:32.163Z,65.23
2018-09-14T09:32:59.727Z,65.63
2018-09-14T09:35:27.344Z,64.37
2018-09-14T09:37:54.892Z,57.90
2018-09-14T09:40:22.454Z,54.33
2018-09-14T09:42:50.017Z,61.20
2018-09-14T09:45:17.641Z,66.23
2018-09-14T09:47:45.206Z,52.70
2018-09-14T09:50:12.857Z,57.53
2018-09-14T09:52:40.425Z,68.60
2018-09-14T09:55:08.055Z,71.63
2018-09-14T09:57:35.679Z,71.40
2018-09-14T10:00:03.344Z,56.30
2018-09-14T10:02:35.980Z,60.77
2018-09-14T10:05:09.357Z,73.37
2018-09-14T10:07:36.993Z,65.27
2018-09-14T10:10:04.604Z,67.53
2018-09-14T10:12:32.267Z,62.17
2018-09-14T10:14:59.843Z,69.33
2018-09-14T10:17:27.408Z,70.23
2018-09-14T10:19:55.019Z,69.87
2018-09-14T10:22:22.611Z,67.60
2018-09-14T10:24:50.193Z,77.83
2018-09-14T10:27:17.741Z,64.77
2018-09-14T10:29:45.330Z,67.00
2018-09-14T10:32:12.879Z,62.87
2018-09-14T10:34:40.508Z,64.83
2018-09-14T10:37:08.139Z,62.87
2018-09-14T10:39:35.748Z,72.20
2018-09-14T10:42:03.449Z,48.33
2018-09-14T10:44:31.077Z,48.30
2018-09-14T10:46:58.680Z,42.77
2018-09-14T10:49:26.312Z,56.77
2018-09-14T10:51:53.989Z,60.07
2018-09-14T10:54:21.728Z,57.90
2018-09-14T10:56:49.309Z,43.80
2018-09-14T10:59:16.874Z,55.73
2018-09-14T11:01:44.511Z,56.97
2018-09-14T11:04:12.144Z,56.77
2018-09-14T11:06:39.794Z,53.23
2018-09-14T11:09:09.882Z,51.63
2018-09-14T11:11:37.659Z,51.43
2018-09-14T11:14:05.318Z,52.33
2018-09-14T11:16:32.984Z,44.93
2018-09-14T11:19:00.820Z,42.60
2018-09-14T11:21:28.461Z,50.13
2018-09-14T11:23:56.111Z,40.63
2018-09-14T11:26:23.687Z,50.07
2018-09-14T11:28:51.260Z,32.40
2018-09-14T11:31:23.361Z,29.97
2018-09-14T11:33:51.034Z,30.70
2018-09-14T11:36:18.865Z,38.83
2018-09-14T11:38:46.539Z,33.27
2018-09-14T11:41:14.183Z,49.60
2018-09-14T11:43:41.780Z,28.30
2018-09-14T11:46:09.435Z,42.20
2018-09-14T11:48:36.998Z,31.27
2018-09-14T11:51:04.633Z,25.80
2018-09-14T11:53:32.279Z,31.37
2018-09-14T11:55:59.919Z,26.87
2018-09-14T11:58:27.613Z,26.77
2018-09-14T12:00:56.066Z,26.73
2018-09-14T12:03:24.239Z,27.47
2018-09-14T12:05:51.855Z,35.20
2018-09-14T12:08:19.992Z,30.13
2018-09-14T12:10:47.927Z,34.00
2018-09-14T12:13:16.039Z,36.67
2018-09-14T12:15:43.710Z,37.23
2018-09-14T12:18:11.381Z,35.57
2018-09-14T12:20:39.032Z,34.77
2018-09-14T12:23:06.670Z,32.53
2018-09-14T12:25:36.920Z,34.10
2018-09-14T12:28:04.923Z,28.87
2018-09-14T12:30:32.775Z,34.43
2018-09-14T12:33:03.462Z,44.97
2018-09-14T12:35:31.217Z,37.83
2018-09-14T12:37:58.688Z,50.17
2018-09-14T12:40:26.324Z,35.80
2018-09-14T12:42:53.908Z,44.93
2018-09-14T12:45:21.538Z,28.00
2018-09-14T12:47:49.145Z,36.60
2018-09-14T12:50:16.773Z,42.60
2018-09-14T12:52:44.514Z,36.80
2018-09-14T12:55:12.239Z,35.53
2018-09-14T12:57:39.863Z,30.57
2018-09-14T13:00:08.005Z,41.97
2018-09-14T13:02:35.887Z,47.83
2018-09-14T13:05:03.611Z,33.93
2018-09-14T13:07:31.253Z,37.93
2018-09-14T13:09:58.812Z,37.17
2018-09-14T13:12:26.489Z,27.07
2018-09-14T13:14:54.103Z,31.87
2018-09-14T13:17:21.734Z,37.77
2018-09-14T13:19:49.333Z,38.43
2018-09-14T13:22:16.949Z,27.27
2018-09-14T13:24:44.564Z,30.57
2018-09-14T13:27:12.245Z,32.33
2018-09-14T13:29:39.832Z,31.77
2018-09-14T13:32:07.403Z,36.53
2018-09-14T13:34:35.009Z,30.37
2018-09-14T13:37:02.677Z,23.10
2018-09-14T13:39:30.303Z,30.73
2018-09-14T13:41:57.914Z,41.63
2018-09-14T13:44:25.515Z,23.73
2018-09-14T13:46:53.226Z,26.57
2018-09-14T13:49:20.795Z,18.87
2018-09-14T13:51:48.405Z,22.10
2018-09-14T13:54:22.247Z,22.60
2018-09-14T13:56:50.107Z,29.83
2018-09-14T13:59:17.683Z,23.57
2018-09-14T14:01:53.067Z,24.97
2018-09-14T14:04:20.764Z,18.23
2018-09-14T14:06:53.729Z,21.37
2018-09-14T14:09:21.381Z,22.00
2018-09-14T14:11:49.094Z,13.70
2018-09-14T14:14:16.763Z,20.10
2018-09-14T14:16:44.399Z,30.73
2018-09-14T14:19:12.312Z,28.80
2018-09-14T14:21:40.128Z,29.47
2018-09-14T14:24:07.732Z,24.43
2018-09-14T14:26:36.956Z,41.33
2018-09-14T14:29:04.630Z,35.53
2018-09-14T14:31:32.346Z,28.90
2018-09-14T14:33:59.965Z,29.70
2018-09-14T14:36:27.586Z,33.20
2018-09-14T14:38:55.260Z,20.60
2018-09-14T14:41:23.012Z,18.67
2018-09-14T14:43:50.625Z,24.50
2018-09-14T14:46:18.224Z,17.37
2018-09-14T14:48:45.809Z,19.97
2018-09-14T14:51:13.508Z,17.60
2018-09-14T14:53:41.148Z,23.20
2018-09-14T14:56:08.774Z,24.80
2018-09-14T14:58:36.509Z,33.37
2018-09-14T15:01:04.237Z,28.10
2018-09-14T15:03:31.903Z,25.47
2018-09-14T15:05:59.527Z,33.30
2018-09-14T15:08:27.542Z,25.10
2018-09-14T15:10:55.215Z,20.20
2018-09-14T15:13:22.859Z,21.37
2018-09-14T15:15:50.463Z,22.20
2018-09-14T15:18:18.091Z,18.10
2018-09-14T15:20:46.169Z,29.20
2018-09-14T15:23:13.786Z,18.90
2018-09-14T15:25:41.386Z,22.13
2018-09-14T15:28:09.001Z,15.97
2018-09-14T15:30:36.579Z,15.87
2018-09-14T15:33:04.096Z,20.57
2018-09-14T15:35:31.759Z,18.93
2018-09-14T15:37:59.416Z,20.73
2018-09-14T15:40:27.018Z,17.33
2018-09-14T15:42:54.589Z,19.53
2018-09-14T15:45:22.227Z,14.40
2018-09-14T15:47:49.822Z,20.83
2018-09-14T15:50:17.461Z,15.10
2018-09-14T15:52:45.061Z,15.50
2018-09-14T15:55:12.668Z,17.93
2018-09-14T15:57:40.393Z,16.87
2018-09-14T16:00:07.955Z,20.63
2018-09-14T16:02:35.581Z,21.27
2018-09-14T16:05:03.217Z,12.43
2018-09-14T16:07:30.858Z,17.03
2018-09-14T16:09:58.518Z,20.27
2018-09-14T16:12:26.155Z,21.33
2018-09-14T16:14:53.773Z,13.43
2018-09-14T16:17:21.381Z,16.27
2018-09-14T16:19:49.189Z,14.00
2018-09-14T16:22:16.806Z,15.77
2018-09-14T16:24:44.424Z,17.70
2018-09-14T16:27:12.085Z,22.47
2018-09-14T16:29:39.756Z,19.47
2018-09-14T16:32:07.346Z,21.43
2018-09-14T16:34:35.036Z,20.00
2018-09-14T16:37:02.730Z,16.00
2018-09-14T16:39:37.169Z,20.40
2018-09-14T16:42:04.770Z,18.67
2018-09-14T16:44:32.542Z,13.50
2018-09-14T16:47:00.190Z,16.50
2018-09-14T16:49:27.765Z,14.20
2018-09-14T16:51:55.913Z,21.73
2018-09-14T16:54:23.528Z,10.27
2018-09-14T16:56:51.329Z,15.73
2018-09-14T16:59:18.938Z,21.43
2018-09-14T17:01:46.546Z,15.17
2018-09-14T17:04:14.145Z,17.03
2018-09-14T17:06:41.836Z,16.43
2018-09-14T17:09:09.872Z,18.10
2018-09-14T17:11:42.643Z,29.67
2018-09-14T17:14:10.299Z,18.00
2018-09-14T17:16:38.148Z,15.30
2018-09-14T17:19:05.919Z,13.50
2018-09-14T17:21:33.715Z,11.90
2018-09-14T17:24:01.212Z,13.63
2018-09-14T17:26:29.391Z,14.87
2018-09-14T17:28:56.977Z,14.37
2018-09-14T17:31:27.929Z,13.47
2018-09-14T17:34:04.693Z,19.37
2018-09-14T17:36:32.364Z,17.43
2018-09-14T17:39:00.039Z,17.93
2018-09-14T17:41:27.587Z,20.67
2018-09-14T17:43:55.217Z,100.03
2018-09-14T17:46:22.863Z,17.63
2018-09-14T17:48:50.564Z,15.37
2018-09-14T17:51:18.215Z,21.00
2018-09-14T17:53:45.833Z,16.43
2018-09-14T17:56:13.512Z,16.20
2018-09-14T17:58:41.105Z,15.47
2018-09-14T18:01:08.737Z,16.90
2018-09-14T18:03:36.406Z,19.00
2018-09-14T18:06:04.116Z,15.40
2018-09-14T18:08:31.752Z,15.60
2018-09-14T18:10:59.447Z,19.00
2018-09-14T18:13:27.034Z,21.87
2018-09-14T18:15:54.738Z,21.30
2018-09-14T18:18:22.315Z,23.77
2018-09-14T18:20:49.908Z,28.07
2018-09-14T18:23:17.517Z,32.73
2018-09-14T18:25:45.107Z,19.10
2018-09-14T18:28:12.750Z,24.97
2018-09-14T18:30:40.440Z,21.10
2018-09-14T18:33:08.059Z,25.90
2018-09-14T18:35:35.710Z,28.97
2018-09-14T18:38:03.365Z,23.93
2018-09-14T18:40:31.067Z,66.90
2018-09-14T18:42:58.814Z,45.33
2018-09-14T18:45:26.391Z,25.27
2018-09-14T18:47:53.992Z,26.63
2018-09-14T18:50:21.624Z,28.77
2018-09-14T18:52:49.265Z,23.67
2018-09-14T18:55:16.964Z,24.20
2018-09-14T18:57:44.532Z,22.00
2018-09-14T19:00:12.333Z,23.67
2018-09-14T19:02:39.953Z,17.87
2018-09-14T19:05:07.553Z,24.90
2018-09-14T19:07:35.180Z,18.80
2018-09-14T19:10:02.879Z,20.50
2018-09-14T19:12:30.504Z,21.97
2018-09-14T19:14:58.132Z,20.67
2018-09-14T19:17:25.730Z,23.00
2018-09-14T19:19:53.342Z,17.87
2018-09-14T19:22:20.985Z,22.27
2018-09-14T19:24:48.689Z,20.90
2018-09-14T19:27:16.385Z,22.40
2018-09-14T19:29:43.998Z,23.70
2018-09-14T19:32:11.608Z,25.00
2018-09-14T19:34:39.210Z,24.77
2018-09-14T19:37:22.674Z,28.37
2018-09-14T19:39:50.253Z,29.93
2018-09-14T19:42:17.865Z,25.57
2018-09-14T19:44:45.560Z,24.37
2018-09-14T19:47:13.180Z,21.17
2018-09-14T19:49:41.006Z,25.60
2018-09-14T19:52:08.651Z,24.30
2018-09-14T19:54:36.334Z,24.97
2018-09-14T19:57:03.997Z,21.30
2018-09-14T19:59:31.602Z,22.40
2018-09-14T20:01:59.213Z,24.90
2018-09-14T20:04:26.790Z,31.20
2018-09-14T20:06:54.385Z,25.23
2018-09-14T20:09:22.078Z,22.50
2018-09-14T20:11:49.675Z,27.73
2018-09-14T20:14:17.262Z,26.83
2018-09-14T20:16:44.901Z,28.70
2018-09-14T20:19:12.510Z,24.10
2018-09-14T20:21:40.130Z,26.77
2018-09-14T20:24:07.777Z,22.37
2018-09-14T20:26:35.365Z,24.63
2018-09-14T20:29:03.058Z,23.67
2018-09-14T20:31:30.712Z,99.53
2018-09-14T20:33:58.391Z,28.23
2018-09-14T20:36:26.066Z,27.10
2018-09-14T20:38:53.753Z,23.17
2018-09-14T20:41:21.340Z,29.43
2018-09-14T20:43:49.003Z,26.00
2018-09-14T20:46:16.597Z,25.70
2018-09-14T20:48:44.195Z,24.57
2018-09-14T20:51:12.088Z,25.17
2018-09-14T20:53:39.646Z,24.17
2018-09-14T20:56:07.928Z,31.33
2018-09-14T20:58:35.568Z,24.50
2018-09-14T21:01:03.225Z,27.60
2018-09-14T21:03:30.811Z,24.57
2018-09-14T21:05:58.496Z,26.13
2018-09-14T21:08:26.043Z,32.03
2018-09-14T21:10:53.708Z,29.20
2018-09-14T21:13:21.365Z,27.30
2018-09-14T21:15:49.186Z,32.80
2018-09-14T21:18:16.877Z,24.53
2018-09-14T21:20:44.485Z,24.87
2018-09-14T21:23:12.197Z,27.87
2018-09-14T21:25:39.812Z,29.53
2018-09-14T21:28:07.426Z,23.37
2018-09-14T21:30:35.137Z,25.83
2018-09-14T21:33:02.717Z,29.63
2018-09-14T21:35:30.276Z,24.67
2018-09-14T21:37:57.929Z,22.53
2018-09-14T21:40:25.646Z,24.33
2018-09-14T21:42:53.242Z,25.53
2018-09-14T21:45:20.868Z,24.47
2018-09-14T21:47:48.430Z,24.77
2018-09-14T21:50:16.069Z,24.10
2018-09-14T21:52:43.658Z,25.47
2018-09-14T21:55:11.328Z,23.40
2018-09-14T21:57:38.981Z,27.00
2018-09-14T22:00:13.526Z,28.23
2018-09-14T22:02:41.138Z,25.73
2018-09-14T22:05:08.784Z,21.90
2018-09-14T22:07:36.367Z,21.67
2018-09-14T22:10:04.267Z,21.53
2018-09-14T22:12:31.985Z,21.10
2018-09-14T22:14:59.541Z,25.90
2018-09-14T22:17:27.204Z,23.37
2018-09-14T22:19:54.837Z,27.60
2018-09-14T22:22:22.454Z,21.10
2018-09-14T22:24:50.083Z,21.57
2018-09-14T22:27:17.655Z,22.70
2018-09-14T22:29:45.308Z,21.43
2018-09-14T22:32:12.906Z,22.10
2018-09-14T22:34:40.512Z,21.53
2018-09-14T22:37:08.104Z,23.23
2018-09-14T22:39:35.708Z,22.53
2018-09-14T22:42:03.344Z,21.40
2018-09-14T22:44:30.896Z,23.90
2018-09-14T22:46:58.506Z,19.20
2018-09-14T22:49:26.075Z,24.60
2018-09-14T22:51:53.683Z,22.80
2018-09-14T22:54:21.267Z,22.10
2018-09-14T22:56:48.932Z,20.90
2018-09-14T22:59:16.534Z,19.60
2018-09-14T23:01:44.247Z,18.40
2018-09-14T23:04:11.837Z,28.47
2018-09-14T23:06:39.429Z,24.90
2018-09-14T23:09:07.565Z,27.93
2018-09-14T23:11:35.263Z,28.67
2018-09-14T23:14:02.909Z,25.00
2018-09-14T23:16:30.481Z,26.33
2018-09-14T23:18:58.067Z,24.53
2018-09-14T23:21:25.629Z,22.60
2018-09-14T23:23:53.206Z,22.80
2018-09-14T23:26:22.820Z,24.20
2018-09-14T23:28:50.495Z,19.73
2018-09-14T23:31:18.090Z,27.53
2018-09-14T23:33:45.680Z,24.37
2018-09-14T23:36:13.256Z,21.83
2018-09-14T23:38:40.843Z,17.63
2018-09-14T23:41:08.417Z,22.77
2018-09-14T23:43:36.067Z,19.30
2018-09-14T23:46:03.671Z,22.53
2018-09-14T23:48:31.299Z,25.40
2018-09-14T23:50:58.873Z,21.63
2018-09-14T23:53:26.477Z,25.83
2018-09-14T23:55:54.100Z,22.27
2018-09-14T23:58:21.668Z,20.00
